Time;durP1;ratioP1;P1;durP2;ratioP2;P2;SDS_P1;SDS_P2;PMS_P1;PMS_P2;Temp;Humidity;BMP_temperature;BMP_pressure;BME280_temperature;BME280_humidity;BME280_pressure;Samples;Min_cycle;Max_cycle;Signal;HPM_P1;HPM_P2
2023/06/25 00:01:24;;;;;;;;;;;;;;;22.13;47.26;100958.94;4841566;29;6810;-74
2023/06/25 00:03:51;;;;;;;;;;;;;;;22.12;47.06;100951.13;4843028;29;6780;-74
2023/06/25 00:06:19;;;;;;;;;;;;;;;22.10;47.17;100953.69;4839512;29;6785;-74
2023/06/25 00:08:46;;;;;;;;;;;;;;;22.07;47.46;100953.69;4829386;29;6980;-74
2023/06/25 00:11:12;;;;;;;;;;;;;;;22.05;47.61;100956.25;4841346;29;6785;-74
2023/06/25 00:13:38;;;;;;;;;;;;;;;22.02;47.91;100951.03;4843076;29;8588;-74
2023/06/25 00:16:04;;;;;;;;;;;;;;;21.99;47.92;100945.75;4842922;29;6781;-74
2023/06/25 00:18:29;;;;;;;;;;;;;;;21.97;48.09;100946.59;4843315;29;6978;-74
2023/06/25 00:20:55;;;;;;;;;;;;;;;21.92;48.51;100943.94;4841889;29;6788;-76
2023/06/25 00:23:21;;;;;;;;;;;;;;;21.87;48.78;100949.13;4838786;29;6797;-76
2023/06/25 00:25:46;;;;;;;;;;;;;;;21.82;49.20;100936.88;4843573;29;7076;-76
2023/06/25 00:28:12;;;;;;;;;;;;;;;21.80;49.02;100930.78;4860151;29;7025;-77
2023/06/25 00:30:38;;;;;;;;;;;;;;;21.75;49.33;100931.63;4838504;29;6777;-76
2023/06/25 00:33:04;;;;;;;;;;;;;;;21.72;49.31;100928.09;4839622;29;6933;-74
2023/06/25 00:36:05;;;;;;;;;;;;;;;21.71;50.34;100929.81;4840281;29;6765;-74
2023/06/25 00:38:33;;;;;;;;;;;;;;;21.69;50.73;100931.56;4842943;29;6998;-74
2023/06/25 00:40:58;;;;;;;;;;;;;;;21.66;51.24;100921.06;4843285;29;6972;-74
2023/06/25 00:43:24;;;;;;;;;;;;;;;21.64;51.28;100922.78;4840839;29;6785;-74
2023/06/25 00:45:50;;;;;;;;;;;;;;;21.61;51.86;100926.22;4840700;29;6773;-74
2023/06/25 00:48:16;;;;;;;;;;;;;;;21.58;51.26;100925.31;4844457;29;7098;-75
2023/06/25 00:50:42;;;;;;;;;;;;;;;21.57;51.35;100923.56;4849856;29;6965;-74
2023/06/25 00:53:09;;;;;;;;;;;;;;;21.55;51.70;100923.53;4843265;29;7481;-75
2023/06/25 00:55:35;;;;;;;;;;;;;;;21.53;51.27;100920.06;4845065;29;6784;-74
2023/06/25 00:58:00;;;;;;;;;;;;;;;21.53;51.20;100924.38;4845032;29;7100;-74
2023/06/25 01:00:29;;;;;;;;;;;;;;;21.51;51.49;100919.16;4839119;29;6945;-74
2023/06/25 01:03:28;;;;;;;;;;;;;;;21.47;51.43;100915.66;4841738;29;7031;-74
2023/06/25 01:06:14;;;;;;;;;;;;;;;21.42;51.23;100914.72;4850495;29;6865;-74
2023/06/25 01:08:49;;;;;;;;;;;;;;;21.39;51.68;100905.97;4842513;29;7004;-74
2023/06/25 01:11:15;;;;;;;;;;;;;;;21.36;51.55;100906.84;4865098;29;6888;-74
2023/06/25 01:13:41;;;;;;;;;;;;;;;21.35;51.62;100905.09;4846184;29;6777;-73
2023/06/25 01:16:07;;;;;;;;;;;;;;;21.34;51.81;100901.59;4823929;29;6986;-73
2023/06/25 01:18:33;;;;;;;;;;;;;;;21.35;51.65;100905.09;4839095;29;6945;-73
2023/06/25 01:21:00;;;;;;;;;;;;;;;21.34;51.84;100899.00;4834994;29;7955;-73
2023/06/25 01:23:27;;;;;;;;;;;;;;;21.36;52.32;100893.81;4826423;29;7272;-73
2023/06/25 01:25:53;;;;;;;;;;;;;;;21.37;51.91;100890.34;4842169;29;6809;-73
2023/06/25 01:28:20;;;;;;;;;;;;;;;21.37;51.97;100888.59;4840097;29;6777;-73
2023/06/25 01:30:51;;;;;;;;;;;;;;;21.39;51.82;100886.00;4839274;29;7022;-73
2023/06/25 01:33:19;;;;;;;;;;;;;;;21.41;52.02;100881.69;4838185;29;7928;-73
2023/06/25 01:35:45;;;;;;;;;;;;;;;21.39;51.66;100883.41;4839707;29;6859;-74
2023/06/25 01:38:11;;;;;;;;;;;;;;;21.39;51.60;100886.00;4839908;29;7026;-73
2023/06/25 01:40:37;;;;;;;;;;;;;;;21.39;51.88;100882.50;4839352;29;6777;-74
2023/06/25 01:43:03;;;;;;;;;;;;;;;21.36;51.49;100879.00;4839359;29;7850;-73
2023/06/25 01:45:28;;;;;;;;;;;;;;;21.33;51.56;100875.50;4840407;29;7049;-74
2023/06/25 01:47:54;;;;;;;;;;;;;;;21.31;51.59;100875.50;4838193;29;7224;-74
2023/06/25 01:50:20;;;;;;;;;;;;;;;21.26;51.33;100864.13;4818311;29;6997;-73
2023/06/25 01:52:46;;;;;;;;;;;;;;;21.23;51.83;100870.19;4823377;29;7172;-73
2023/06/25 01:55:11;;;;;;;;;;;;;;;21.19;51.52;100871.00;4834304;29;7179;-73
2023/06/25 01:57:37;;;;;;;;;;;;;;;21.16;51.79;100863.16;4837927;29;6853;-74
2023/06/25 02:00:07;;;;;;;;;;;;;;;21.11;51.75;100859.63;4836297;29;6859;-74
2023/06/25 02:02:32;;;;;;;;;;;;;;;21.07;52.00;100858.72;4835670;29;8549;-73
2023/06/25 02:04:58;;;;;;;;;;;;;;;21.05;51.94;100854.31;4830719;29;7016;-73
2023/06/25 02:07:23;;;;;;;;;;;;;;;21.03;52.12;100856.03;4839159;29;6784;-73
2023/06/25 02:09:49;;;;;;;;;;;;;;;21.02;52.53;100860.41;4839326;29;6844;-73
2023/06/25 02:12:14;;;;;;;;;;;;;;;20.99;52.11;100849.06;4840269;29;7005;-73
2023/06/25 02:14:40;;;;;;;;;;;;;;;20.98;52.31;100847.31;4839295;29;6941;-73
2023/06/25 02:17:06;;;;;;;;;;;;;;;20.94;52.23;100846.41;4839044;29;6812;-74
2023/06/25 02:19:31;;;;;;;;;;;;;;;20.93;52.52;100845.50;4836852;29;7180;-74
2023/06/25 02:21:57;;;;;;;;;;;;;;;20.90;52.39;100845.47;4820080;29;7346;-75
2023/06/25 02:24:23;;;;;;;;;;;;;;;20.88;52.68;100844.59;4825462;29;7341;-74
2023/06/25 02:26:48;;;;;;;;;;;;;;;20.85;52.17;100838.47;4847547;29;10243;-75
2023/06/25 02:29:14;;;;;;;;;;;;;;;20.83;52.46;100838.44;4825097;29;7258;-75
2023/06/25 02:31:40;;;;;;;;;;;;;;;20.79;52.74;100837.50;4820246;29;6833;-75
2023/06/25 02:34:06;;;;;;;;;;;;;;;20.76;52.68;100837.47;4841079;29;7021;-75
2023/06/25 02:36:31;;;;;;;;;;;;;;;20.75;52.63;100837.44;4819357;29;8474;-74
2023/06/25 02:38:57;;;;;;;;;;;;;;;20.72;52.43;100834.78;4856817;29;6951;-74
2023/06/25 02:41:22;;;;;;;;;;;;;;;20.69;52.97;100825.22;4826761;29;6903;-75
2023/06/25 02:43:48;;;;;;;;;;;;;;;20.64;52.89;100832.97;4839639;29;6780;-75
2023/06/25 02:46:14;;;;;;;;;;;;;;;20.62;52.93;100824.25;4855326;29;6780;-74
2023/06/25 02:48:42;;;;;;;;;;;;;;;20.59;52.94;100824.22;4838540;29;6931;-75
2023/06/25 02:51:09;;;;;;;;;;;;;;;20.56;52.73;100829.38;4818717;29;7274;-74
2023/06/25 02:53:36;;;;;;;;;;;;;;;20.52;53.18;100817.19;4857065;29;7135;-74
2023/06/25 02:56:02;;;;;;;;;;;;;;;20.49;52.97;100830.16;4820874;29;7246;-74
2023/06/25 02:58:27;;;;;;;;;;;;;;;20.47;52.85;100821.44;4840866;29;7260;-75
2023/06/25 03:00:53;;;;;;;;;;;;;;;20.44;53.07;100819.69;4832189;29;6948;-74
2023/06/25 03:03:19;;;;;;;;;;;;;;;20.43;53.14;100819.66;4834780;29;7216;-75
2023/06/25 03:05:44;;;;;;;;;;;;;;;20.40;52.94;100821.38;4837697;29;7379;-75
2023/06/25 03:08:10;;;;;;;;;;;;;;;20.39;53.15;100819.63;4837325;29;6773;-74
2023/06/25 03:10:37;;;;;;;;;;;;;;;20.38;53.14;100817.88;4837500;29;6828;-75
2023/06/25 03:13:04;;;;;;;;;;;;;;;20.36;53.20;100816.09;4821156;29;7015;-74
2023/06/25 03:15:30;;;;;;;;;;;;;;;20.34;53.36;100818.66;4838598;29;6793;-74
2023/06/25 03:17:56;;;;;;;;;;;;;;;20.33;53.52;100823.84;4838431;29;6757;-75
2023/06/25 03:20:22;;;;;;;;;;;;;;;20.33;53.58;100818.63;4836637;29;7307;-74
2023/06/25 03:22:48;;;;;;;;;;;;;;;20.32;53.43;100815.19;4825361;29;6950;-75
2023/06/25 03:25:14;;;;;;;;;;;;;;;20.31;53.61;100818.63;4841897;29;6871;-75
2023/06/25 03:27:40;;;;;;;;;;;;;;;20.32;53.55;100820.38;4841699;29;6804;-74
2023/06/25 03:30:07;;;;;;;;;;;;;;;20.35;53.51;100822.16;4832093;29;6972;-74
2023/06/25 03:32:33;;;;;;;;;;;;;;;20.37;53.67;100816.09;4852664;29;6773;-74
2023/06/25 03:34:59;;;;;;;;;;;;;;;20.42;53.22;100810.09;4822767;29;8508;-74
2023/06/25 03:37:25;;;;;;;;;;;;;;;20.46;53.59;100802.34;4838506;29;6785;-74
2023/06/25 03:39:51;;;;;;;;;;;;;;;20.51;53.12;100805.03;4842419;29;6788;-74
2023/06/25 03:42:17;;;;;;;;;;;;;;;20.58;52.56;100805.97;4840165;29;6992;-74
2023/06/25 03:44:50;;;;;;;;;;;;;;;20.63;52.60;100804.31;4840024;29;8371;-75
2023/06/25 03:47:15;;;;;;;;;;;;;;;20.66;52.96;100802.59;4840861;29;7124;-74
2023/06/25 03:49:43;;;;;;;;;;;;;;;20.70;52.55;100802.66;4853585;29;6800;-74
2023/06/25 03:52:09;;;;;;;;;;;;;;;20.70;52.66;100805.25;4833442;29;7415;-74
2023/06/25 03:54:34;;;;;;;;;;;;;;;20.71;52.44;100804.41;4820440;29;6948;-74
2023/06/25 03:57:00;;;;;;;;;;;;;;;20.74;52.24;100801.81;4843212;29;7020;-75
2023/06/25 03:59:26;;;;;;;;;;;;;;;20.75;52.20;100799.25;4844139;29;6793;-74
2023/06/25 04:01:52;;;;;;;;;;;;;;;20.79;52.30;100798.41;4836118;29;6813;-74
2023/06/25 04:04:17;;;;;;;;;;;;;;;20.84;52.04;100806.31;4855127;29;7004;-74
2023/06/25 04:06:43;;;;;;;;;;;;;;;20.90;51.82;100801.19;4848823;29;7431;-74
2023/06/25 04:09:08;;;;;;;;;;;;;;;20.97;51.73;100809.97;4856882;29;6841;-74
2023/06/25 04:11:34;;;;;;;;;;;;;;;21.04;51.67;100808.28;4823068;29;6966;-75
2023/06/25 04:13:59;;;;;;;;;;;;;;;21.10;51.81;100808.38;4839026;29;6773;-74
2023/06/25 04:16:25;;;;;;;;;;;;;;;21.17;51.03;100807.59;4825373;29;6979;-74
2023/06/25 04:18:51;;;;;;;;;;;;;;;21.28;51.07;100809.44;4854350;29;6982;-74
2023/06/25 04:21:17;;;;;;;;;;;;;;;21.37;51.03;100799.94;4833736;29;6756;-75
2023/06/25 04:23:42;;;;;;;;;;;;;;;21.50;50.32;100805.31;4840509;29;6819;-75
2023/06/25 04:26:08;;;;;;;;;;;;;;;21.60;50.18;100801.03;4840103;29;7055;-74
2023/06/25 04:28:33;;;;;;;;;;;;;;;21.71;50.36;100799.41;4841744;29;7188;-75
2023/06/25 04:30:59;;;;;;;;;;;;;;;21.80;50.49;100796.03;4833861;29;6772;-75
2023/06/25 04:33:25;;;;;;;;;;;;;;;21.92;50.63;100801.31;4841125;29;6765;-74
2023/06/25 04:35:50;;;;;;;;;;;;;;;22.03;51.05;100800.53;4819152;29;7109;-74
2023/06/25 04:38:16;;;;;;;;;;;;;;;22.17;50.86;100798.91;4840136;29;6801;-74
2023/06/25 04:40:41;;;;;;;;;;;;;;;22.32;50.40;100795.50;4836980;29;6768;-74
2023/06/25 04:43:07;;;;;;;;;;;;;;;22.51;49.85;100800.84;4836593;29;6832;-75
2023/06/25 04:45:33;;;;;;;;;;;;;;;22.70;49.62;100803.56;4840298;29;7404;-75
2023/06/25 04:47:58;;;;;;;;;;;;;;;22.92;49.67;100798.41;4822593;29;6814;-75
2023/06/25 04:50:24;;;;;;;;;;;;;;;23.14;48.92;100800.19;4835453;29;6931;-74
2023/06/25 04:52:49;;;;;;;;;;;;;;;23.40;49.07;100795.91;4842102;29;6867;-74
2023/06/25 04:55:15;;;;;;;;;;;;;;;23.67;48.36;100805.53;4838353;29;6792;-74
2023/06/25 04:57:41;;;;;;;;;;;;;;;23.97;47.99;100789.78;4825844;29;7002;-73
2023/06/25 05:00:07;;;;;;;;;;;;;;;24.30;48.04;100797.59;4839377;29;6773;-74
2023/06/25 05:02:33;;;;;;;;;;;;;;;24.63;46.82;100804.47;4827383;29;7908;-74
2023/06/25 05:04:59;;;;;;;;;;;;;;;24.96;46.32;100801.75;4834187;29;6950;-74
2023/06/25 05:07:24;;;;;;;;;;;;;;;25.28;46.25;100802.44;4833609;29;6777;-74
2023/06/25 05:09:50;;;;;;;;;;;;;;;25.60;45.90;100799.59;4852940;29;7051;-75
2023/06/25 05:12:15;;;;;;;;;;;;;;;25.91;45.37;100793.19;4834291;29;6765;-74
2023/06/25 05:14:42;;;;;;;;;;;;;;;26.24;45.39;100795.53;4835472;29;6966;-74
2023/06/25 05:17:07;;;;;;;;;;;;;;;26.56;44.35;100796.91;4853247;29;6785;-73
2023/06/25 05:19:33;;;;;;;;;;;;;;;26.87;43.61;100802.63;4840331;29;6966;-74
2023/06/25 05:21:59;;;;;;;;;;;;;;;27.20;42.87;100793.47;4842316;29;6764;-75
2023/06/25 05:24:24;;;;;;;;;;;;;;;27.50;42.67;100792.09;4821006;29;6954;-74
2023/06/25 05:26:50;;;;;;;;;;;;;;;27.81;41.74;100788.94;4836446;29;7284;-74
2023/06/25 05:29:16;;;;;;;;;;;;;;;28.11;40.58;100788.41;4837951;29;6866;-74
2023/06/25 05:31:41;;;;;;;;;;;;;;;28.36;39.97;100780.09;4825480;29;7206;-74
2023/06/25 05:34:07;;;;;;;;;;;;;;;28.63;39.24;100791.81;4846879;29;6785;-74
2023/06/25 05:36:32;;;;;;;;;;;;;;;28.88;39.05;100788.69;4835295;29;6781;-74
2023/06/25 05:38:58;;;;;;;;;;;;;;;29.12;38.78;100786.38;4838973;29;7023;-74
2023/06/25 05:41:24;;;;;;;;;;;;;;;29.34;39.49;100788.47;4820637;29;6953;-75
2023/06/25 05:43:49;;;;;;;;;;;;;;;29.57;39.19;100789.72;4836118;29;7073;-74
2023/06/25 05:46:15;;;;;;;;;;;;;;;29.77;38.31;100782.16;4837599;29;6781;-74
2023/06/25 05:48:41;;;;;;;;;;;;;;;29.98;38.00;100785.13;4838607;29;7689;-74
2023/06/25 05:51:06;;;;;;;;;;;;;;;30.19;37.89;100788.13;4840585;29;6789;-74
2023/06/25 05:53:43;;;;;;;;;;;;;;;30.44;37.17;100779.50;4836582;29;6781;-74
2023/06/25 05:56:09;;;;;;;;;;;;;;;30.68;37.03;100779.69;4814581;29;6836;-74
2023/06/25 05:58:36;;;;;;;;;;;;;;;30.85;36.08;100780.03;4847106;29;6797;-74
2023/06/25 06:01:05;;;;;;;;;;;;;;;30.92;35.73;100783.34;4851504;29;7239;-74
2023/06/25 06:03:31;;;;;;;;;;;;;;;30.88;35.16;100779.09;4831853;29;6984;-74
2023/06/25 06:05:57;;;;;;;;;;;;;;;30.72;35.13;100771.63;4837028;29;6856;-74
2023/06/25 06:08:24;;;;;;;;;;;;;;;30.49;35.70;100780.19;4837093;29;7225;-74
2023/06/25 06:10:49;;;;;;;;;;;;;;;30.22;36.35;100774.81;4824349;29;6970;-74
2023/06/25 06:13:16;;;;;;;;;;;;;;;29.95;36.41;100779.94;4835857;29;6801;-75
2023/06/25 06:15:42;;;;;;;;;;;;;;;29.65;36.43;100770.13;4843277;29;6809;-75
2023/06/25 06:18:07;;;;;;;;;;;;;;;29.36;36.62;100778.78;4837717;29;6945;-74
2023/06/25 06:20:33;;;;;;;;;;;;;;;29.10;36.67;100777.63;4841089;29;7013;-74
2023/06/25 06:22:59;;;;;;;;;;;;;;;28.88;37.58;100783.41;4822687;29;7218;-74
2023/06/25 06:25:25;;;;;;;;;;;;;;;28.68;38.24;100781.16;4840048;29;7260;-74
2023/06/25 06:27:52;;;;;;;;;;;;;;;28.48;38.30;100782.47;4851275;29;6999;-74
2023/06/25 06:30:17;;;;;;;;;;;;;;;28.35;38.87;100776.56;4855731;29;6809;-73
2023/06/25 06:32:43;;;;;;;;;;;;;;;28.26;39.13;100779.38;4837736;29;7181;-73
2023/06/25 06:35:10;;;;;;;;;;;;;;;28.19;39.59;100783.03;4834332;29;6891;-74
2023/06/25 06:37:35;;;;;;;;;;;;;;;28.13;39.60;100776.97;4853962;29;7273;-74
2023/06/25 06:40:01;;;;;;;;;;;;;;;28.09;39.97;100777.91;4811232;29;7026;-73
2023/06/25 06:42:27;;;;;;;;;;;;;;;28.07;40.15;100777.06;4843768;29;6792;-74
2023/06/25 06:44:53;;;;;;;;;;;;;;;28.04;40.85;100774.50;4869452;29;6776;-74
2023/06/25 06:47:18;;;;;;;;;;;;;;;28.05;40.32;100773.59;4838596;29;6776;-72
2023/06/25 06:49:44;;;;;;;;;;;;;;;28.07;41.00;100770.94;4839987;29;6849;-72
2023/06/25 06:52:09;;;;;;;;;;;;;;;28.10;40.96;100777.03;4837914;29;6781;-72
2023/06/25 06:54:35;;;;;;;;;;;;;;;28.18;41.59;100771.59;4832796;29;7434;-73
2023/06/25 06:57:01;;;;;;;;;;;;;;;28.35;41.17;100771.28;4835984;29;6856;-73
2023/06/25 06:59:26;;;;;;;;;;;;;;;28.62;41.21;100773.38;4841079;29;6959;-72
2023/06/25 07:01:52;;;;;;;;;;;;;;;28.97;41.21;100769.13;4840130;29;6773;-73
2023/06/25 07:04:17;;;;;;;;;;;;;;;29.44;40.78;100770.66;4822612;29;7353;-73
2023/06/25 07:06:43;;;;;;;;;;;;;;;29.96;40.59;100759.66;4841338;29;7038;-74
2023/06/25 07:09:09;;;;;;;;;;;;;;;30.49;40.87;100761.69;4846015;29;7000;-72
2023/06/25 07:11:34;;;;;;;;;;;;;;;31.06;39.64;100758.25;4839691;29;6784;-73
2023/06/25 07:14:00;;;;;;;;;;;;;;;31.63;38.52;100755.50;4841891;29;7210;-72
2023/06/25 07:16:26;;;;;;;;;;;;;;;32.18;37.42;100754.47;4843516;29;6777;-72
2023/06/25 07:18:51;;;;;;;;;;;;;;;32.64;36.92;100757.16;4837731;29;7090;-73
2023/06/25 07:21:17;;;;;;;;;;;;;;;33.02;36.81;100760.09;4837923;29;7658;-73
2023/06/25 07:23:43;;;;;;;;;;;;;;;33.33;36.56;100763.28;4835283;29;6784;-73
2023/06/25 07:26:09;;;;;;;;;;;;;;;33.65;36.11;100764.59;4843053;29;6780;-73
2023/06/25 07:28:34;;;;;;;;;;;;;;;33.97;35.75;100756.16;4841329;29;6812;-72
2023/06/25 07:31:00;;;;;;;;;;;;;;;34.23;34.96;100751.44;4837411;29;7183;-73
2023/06/25 07:33:25;;;;;;;;;;;;;;;34.46;34.54;100758.34;4820663;29;8434;-72
2023/06/25 07:35:51;;;;;;;;;;;;;;;34.61;34.00;100761.25;4848745;29;8219;-75
2023/06/25 07:38:17;;;;;;;;;;;;;;;34.73;33.64;100758.00;4852800;29;7000;-73
2023/06/25 07:40:42;;;;;;;;;;;;;;;34.82;33.35;100754.06;4836592;29;6804;-72
2023/06/25 07:43:08;;;;;;;;;;;;;;;34.88;33.35;100752.88;4836422;29;7886;-73
2023/06/25 07:45:33;;;;;;;;;;;;;;;34.98;32.96;100754.16;4838640;29;6788;-73
2023/06/25 07:47:59;;;;;;;;;;;;;;;35.10;33.01;100751.84;4839941;29;6796;-73
2023/06/25 07:50:25;;;;;;;;;;;;;;;35.25;32.77;100756.41;4855269;29;6776;-73
2023/06/25 07:52:51;;;;;;;;;;;;;;;35.47;32.57;100755.31;4840176;29;6792;-73
2023/06/25 07:55:17;;;;;;;;;;;;;;;35.73;31.81;100745.09;4844506;29;6987;-73
2023/06/25 07:57:42;;;;;;;;;;;;;;;35.97;32.06;100748.25;4855378;29;6939;-73
2023/06/25 08:00:09;;;;;;;;;;;;;;;36.21;30.97;100744.38;4841488;29;6773;-72
2023/06/25 08:02:35;;;;;;;;;;;;;;;36.40;30.74;100745.06;4835133;29;11611;-73
2023/06/25 08:05:00;;;;;;;;;;;;;;;36.63;30.96;100748.31;4841281;29;6803;-73
2023/06/25 08:07:26;;;;;;;;;;;;;;;36.85;30.75;100738.22;4837371;29;6792;-74
2023/06/25 08:09:52;;;;;;;;;;;;;;;37.13;30.99;100742.81;4835029;29;6824;-73
2023/06/25 08:12:17;;;;;;;;;;;;;;;37.45;29.86;100742.69;4820638;29;7350;-72
2023/06/25 08:14:44;;;;;;;;;;;;;;;37.78;29.49;100738.09;4855927;29;6892;-70
2023/06/25 08:17:10;;;;;;;;;;;;;;;38.12;28.67;100735.13;4822089;29;7191;-70
2023/06/25 08:19:35;;;;;;;;;;;;;;;38.45;28.40;100725.91;4841124;29;6869;-71
2023/06/25 08:22:01;;;;;;;;;;;;;;;38.82;28.02;100723.50;4831239;29;6973;-70
2023/06/25 08:24:27;;;;;;;;;;;;;;;39.13;27.80;100728.63;4837276;29;6964;-71
2023/06/25 08:26:52;;;;;;;;;;;;;;;39.36;27.45;100731.56;4840494;29;7418;-69
2023/06/25 08:29:18;;;;;;;;;;;;;;;39.60;26.82;100734.41;4838379;29;7298;-70
2023/06/25 08:31:43;;;;;;;;;;;;;;;39.90;26.80;100732.34;4837150;29;6776;-71
2023/06/25 08:34:09;;;;;;;;;;;;;;;40.20;26.59;100729.28;4837390;29;6773;-71
2023/06/25 08:36:36;;;;;;;;;;;;;;;40.45;26.17;100732.88;4851176;29;10776;-72
2023/06/25 08:39:02;;;;;;;;;;;;;;;40.54;25.81;100734.88;4839112;29;6808;-73
2023/06/25 08:41:28;;;;;;;;;;;;;;;40.48;25.33;100735.34;4839709;29;7312;-71
2023/06/25 08:43:54;;;;;;;;;;;;;;;40.35;24.81;100727.34;4848355;29;6969;-70
2023/06/25 08:46:24;;;;;;;;;;;;;;;40.26;25.02;100720.78;4840860;29;6865;-70
2023/06/25 08:48:54;;;;;;;;;;;;;;;40.34;25.38;100724.75;4821182;29;7034;-70
2023/06/25 08:51:24;;;;;;;;;;;;;;;40.50;24.86;100728.03;4841589;29;6812;-69
2023/06/25 08:53:51;;;;;;;;;;;;;;;40.73;24.19;100728.13;4836808;29;6933;-70
2023/06/25 08:56:17;;;;;;;;;;;;;;;40.93;24.07;100721.28;4817271;29;8716;-70
2023/06/25 08:58:44;;;;;;;;;;;;;;;41.19;23.52;100728.31;4832692;29;6815;-71
2023/06/25 09:01:13;;;;;;;;;;;;;;;41.48;24.22;100718.03;4835711;29;7000;-69
2023/06/25 09:03:41;;;;;;;;;;;;;;;41.88;23.44;100722.06;4839713;29;6809;-70
2023/06/25 09:06:15;;;;;;;;;;;;;;;42.23;23.56;100711.28;4838699;29;6789;-70
2023/06/25 09:08:42;;;;;;;;;;;;;;;42.56;22.96;100714.88;4849042;29;7162;-69
2023/06/25 09:11:09;;;;;;;;;;;;;;;42.87;22.79;100714.97;4847283;29;6788;-69
2023/06/25 09:13:35;;;;;;;;;;;;;;;43.12;22.44;100708.38;4835431;29;8540;-70
2023/06/25 09:16:07;;;;;;;;;;;;;;;43.38;21.84;100708.00;4836581;29;7269;-69
2023/06/25 09:18:33;;;;;;;;;;;;;;;43.60;21.46;100716.03;4852853;29;7243;-69
2023/06/25 09:21:09;;;;;;;;;;;;;;;43.83;21.36;100714.88;4836355;29;7144;-69
2023/06/25 09:23:38;;;;;;;;;;;;;;;44.07;21.02;100707.41;4835873;29;6785;-70
2023/06/25 09:26:09;;;;;;;;;;;;;;;44.26;20.66;100701.22;4835215;29;6820;-69
2023/06/25 09:28:47;;;;;;;;;;;;;;;44.37;19.96;100701.09;4834137;29;6975;-69
2023/06/25 09:31:17;;;;;;;;;;;;;;;44.39;20.03;100700.97;4842432;29;7128;-71
2023/06/25 09:33:53;;;;;;;;;;;;;;;44.31;20.13;100698.94;4831969;29;6887;-70
2023/06/25 09:36:19;;;;;;;;;;;;;;;44.26;19.64;100706.63;4853938;29;6904;-69
2023/06/25 09:38:45;;;;;;;;;;;;;;;44.33;19.45;100696.13;4836001;29;6992;-70
2023/06/25 09:41:15;;;;;;;;;;;;;;;44.45;19.14;100700.38;4835491;29;6907;-70
2023/06/25 09:43:43;;;;;;;;;;;;;;;44.59;19.31;100703.69;4836792;29;6877;-69
2023/06/25 09:46:11;;;;;;;;;;;;;;;44.66;19.52;100697.56;4854870;29;6796;-69
2023/06/25 09:48:37;;;;;;;;;;;;;;;44.70;19.61;100687.31;4832118;29;8238;-69
2023/06/25 09:51:07;;;;;;;;;;;;;;;44.77;19.22;100691.16;4836047;29;6934;-70
2023/06/25 09:53:38;;;;;;;;;;;;;;;44.88;18.76;100686.59;4831647;29;6792;-69
2023/06/25 09:56:08;;;;;;;;;;;;;;;44.85;18.78;100687.72;4851807;29;6813;-70
2023/06/25 09:58:34;;;;;;;;;;;;;;;44.87;18.47;100685.72;4854737;29;7013;-68
2023/06/25 10:01:00;;;;;;;;;;;;;;;44.78;18.99;100683.91;4834833;29;6839;-71
2023/06/25 10:03:28;;;;;;;;;;;;;;;44.79;19.33;100682.91;4853746;29;6796;-70
2023/06/25 10:05:54;;;;;;;;;;;;;;;44.95;19.02;100680.47;4836727;29;6793;-70
2023/06/25 10:08:21;;;;;;;;;;;;;;;45.16;18.99;100689.41;4848400;29;6845;-71
2023/06/25 10:11:01;;;;;;;;;;;;;;;45.37;18.19;100689.19;4833545;29;7213;-71
2023/06/25 10:13:27;;;;;;;;;;;;;;;45.54;17.45;100684.03;4852796;29;6800;-69
2023/06/25 10:16:02;;;;;;;;;;;;;;;45.69;17.51;100674.41;4845407;29;6781;-70
2023/06/25 10:18:28;;;;;;;;;;;;;;;45.86;17.91;100672.75;4850434;29;6929;-69
2023/06/25 10:20:58;;;;;;;;;;;;;;;46.09;17.79;100671.47;4851130;29;7008;-71
2023/06/25 10:23:26;;;;;;;;;;;;;;;46.29;17.70;100673.06;4848500;29;6780;-71
2023/06/25 10:25:57;;;;;;;;;;;;;;;46.37;17.35;100666.84;4849585;29;6800;-69
2023/06/25 10:28:37;;;;;;;;;;;;;;;46.22;17.11;100657.59;4852847;29;7468;-71
2023/06/25 10:31:13;;;;;;;;;;;;;;;46.02;16.83;100660.38;4840813;29;6801;-70
2023/06/25 10:33:39;;;;;;;;;;;;;;;45.92;16.78;100655.06;4824686;29;7603;-69
2023/06/25 10:36:10;;;;;;;;;;;;;;;45.74;17.14;100657.72;4841481;29;6777;-70
2023/06/25 10:38:37;;;;;;;;;;;;;;;45.65;17.17;100645.09;4840763;29;6879;-69
2023/06/25 10:41:02;;;;;;;;;;;;;;;45.71;17.03;100648.03;4838628;29;6817;-70
2023/06/25 10:43:28;;;;;;;;;;;;;;;45.84;17.18;100645.00;4843454;29;6788;-70
2023/06/25 10:45:57;;;;;;;;;;;;;;;45.99;17.85;100645.34;4839568;29;7111;-69
2023/06/25 10:48:24;;;;;;;;;;;;;;;45.91;17.10;100645.25;4841396;29;6800;-68
2023/06/25 10:50:52;;;;;;;;;;;;;;;45.79;17.03;100643.78;4844133;29;7029;-68
2023/06/25 10:53:23;;;;;;;;;;;;;;;45.72;16.93;100638.91;4841218;29;6793;-71
2023/06/25 10:55:53;;;;;;;;;;;;;;;45.68;16.85;100647.50;4844353;29;7196;-71
2023/06/25 10:58:24;;;;;;;;;;;;;;;45.75;17.12;100637.78;4848439;29;6872;-71
2023/06/25 11:00:54;;;;;;;;;;;;;;;45.97;17.16;100635.66;4841534;29;6930;-71
2023/06/25 11:03:22;;;;;;;;;;;;;;;46.04;16.70;100634.03;4843687;29;6881;-70
2023/06/25 11:05:48;;;;;;;;;;;;;;;45.97;16.57;100631.06;4842186;29;6996;-68
2023/06/25 11:08:14;;;;;;;;;;;;;;;45.86;16.64;100624.03;4843290;29;6792;-68
2023/06/25 11:10:42;;;;;;;;;;;;;;;45.70;16.71;100627.41;4844366;29;6928;-69
2023/06/25 11:13:13;;;;;;;;;;;;;;;45.57;16.58;100624.19;4843513;29;6789;-69
2023/06/25 11:15:40;;;;;;;;;;;;;;;45.55;16.94;100624.34;4858668;29;6793;-69
2023/06/25 11:18:10;;;;;;;;;;;;;;;45.57;16.51;100618.78;4843039;29;6956;-69
2023/06/25 11:20:40;;;;;;;;;;;;;;;45.51;16.47;100617.53;4844340;29;6891;-71
2023/06/25 11:23:06;;;;;;;;;;;;;;;45.30;16.59;100618.59;4853904;29;6800;-69
2023/06/25 11:25:31;;;;;;;;;;;;;;;45.23;16.60;100612.09;4839112;29;7160;-70
2023/06/25 11:28:04;;;;;;;;;;;;;;;45.25;16.72;100617.34;4836600;29;7163;-69
2023/06/25 11:30:30;;;;;;;;;;;;;;;45.37;16.56;100613.44;4836222;29;8728;-69
2023/06/25 11:33:16;;;;;;;;;;;;;;;45.45;16.50;100608.16;4842738;29;6924;-71
2023/06/25 11:35:50;;;;;;;;;;;;;;;45.58;16.54;100607.81;4842643;29;6816;-71
2023/06/25 11:38:29;;;;;;;;;;;;;;;45.68;16.39;100609.59;4855055;29;6973;-71
2023/06/25 11:40:58;;;;;;;;;;;;;;;45.85;16.44;100602.53;4855648;29;6801;-71
2023/06/25 11:43:25;;;;;;;;;;;;;;;45.99;16.79;100602.00;4835647;29;7098;-71
2023/06/25 11:45:52;;;;;;;;;;;;;;;46.24;16.80;100593.28;4838448;29;7222;-71
2023/06/25 11:48:17;;;;;;;;;;;;;;;46.53;16.59;100597.56;4843466;29;6796;-71
2023/06/25 11:50:46;;;;;;;;;;;;;;;46.73;15.92;100592.81;4843785;29;6781;-70
2023/06/25 11:53:12;;;;;;;;;;;;;;;46.52;15.76;100594.00;4848861;29;6812;-70
2023/06/25 11:55:38;;;;;;;;;;;;;;;46.32;15.43;100587.94;4827449;29;7130;-70
2023/06/25 11:58:04;;;;;;;;;;;;;;;46.14;15.93;100583.38;4827476;29;7188;-71
2023/06/25 12:00:30;;;;;;;;;;;;;;;46.15;16.61;100584.19;4823116;29;7187;-71
2023/06/25 12:02:55;;;;;;;;;;;;;;;46.39;16.25;100580.03;4835329;29;7109;-71
2023/06/25 12:05:21;;;;;;;;;;;;;;;46.53;15.82;100579.44;4840596;29;7193;-71
2023/06/25 12:07:47;;;;;;;;;;;;;;;46.52;15.92;100575.03;4844419;29;6797;-71
2023/06/25 12:10:12;;;;;;;;;;;;;;;46.54;15.63;100573.00;4821303;29;8850;-70
2023/06/25 12:12:38;;;;;;;;;;;;;;;46.55;15.64;100569.34;4839791;29;7147;-71
2023/06/25 12:15:04;;;;;;;;;;;;;;;46.56;15.80;100573.75;4852877;29;6768;-70
2023/06/25 12:17:30;;;;;;;;;;;;;;;46.51;15.55;100567.91;4839134;29;6785;-71
2023/06/25 12:19:55;;;;;;;;;;;;;;;46.45;15.67;100568.53;4823456;29;7024;-71
2023/06/25 12:22:21;;;;;;;;;;;;;;;46.48;15.77;100570.94;4839465;29;8096;-70
2023/06/25 12:24:46;;;;;;;;;;;;;;;46.53;15.45;100565.88;4840833;29;6813;-71
2023/06/25 12:27:12;;;;;;;;;;;;;;;46.70;16.18;100560.59;4840631;29;7036;-71
2023/06/25 12:29:38;;;;;;;;;;;;;;;46.85;15.16;100553.59;4837695;29;7205;-70
2023/06/25 12:32:04;;;;;;;;;;;;;;;46.55;15.20;100553.09;4838793;29;6932;-71
2023/06/25 12:34:29;;;;;;;;;;;;;;;45.92;15.50;100549.50;4837633;29;6855;-71
2023/06/25 12:36:55;;;;;;;;;;;;;;;45.40;15.93;100545.56;4839287;29;7941;-71
2023/06/25 12:39:21;;;;;;;;;;;;;;;45.21;16.31;100541.94;4842345;29;6781;-71
2023/06/25 12:41:46;;;;;;;;;;;;;;;45.28;16.48;100539.47;4834918;29;7618;-70
2023/06/25 12:44:12;;;;;;;;;;;;;;;45.31;16.92;100527.53;4837352;29;7275;-71